EYKS weather

S. Darius and S. Gir─Śnas Airport
Kaunas, Kaunas County, Lithuania

Public forecast

Using degrees Celsius for public forecast. Weather courtesy of forecast.io.

METAR (pilot weather report)

Closest report is Kaunas International Airport, 8.6 nm (16.0 km) NE. Retrieved 2018/10/18 16:20 UTC (9 minutes ago):

EYKA 181620Z 14001KT 9000 MIFG NSC 11/09 Q1018

TAF (pilot weather forecast)

Forecast is more than 12 hours old.

Closest forecast is Kaunas International Airport, 8.6 nm (16.0 km) NE. Retrieved 2018/10/17 06:24 UTC (1 day ago):

TAF TAF EYKA 170500Z 1706/1806 VRB05KT 9000 NSC PROB40 TEMPO 1706/1708 BKN002 BECMG 1718/1719 3000 MIFG BR TEMPO 1720/1806 0500 FG VV002